Time;durP1;ratioP1;P1;durP2;ratioP2;P2;SDS_P1;SDS_P2;PMS_P1;PMS_P2;Temp;Humidity;BMP_temperature;BMP_pressure;BME280_temperature;BME280_humidity;BME280_pressure;Samples;Min_cycle;Max_cycle;Signal;HPM_P1;HPM_P2
2024/01/03 00:01:30;;;;;;;33.03;17.70;;;5.60;99.90;;;5.42;71.63;94643.03;5009605;28;20474;-58
2024/01/03 00:03:57;;;;;;;27.27;16.73;;;5.60;99.90;;;5.45;71.58;94653.25;5010196;28;20464;-57
2024/01/03 00:06:24;;;;;;;39.33;15.53;;;5.60;99.90;;;5.46;71.30;94651.50;5008693;28;20555;-58
2024/01/03 00:08:53;;;;;;;25.90;15.30;;;5.60;99.90;;;5.42;71.50;94657.88;5010103;28;20571;-58
2024/01/03 00:11:21;;;;;;;28.50;16.30;;;5.60;99.90;;;5.39;71.97;94657.16;5008989;28;20466;-59
2024/01/03 00:14:07;;;;;;;25.87;15.83;;;5.50;99.90;;;5.41;72.09;94658.81;5009735;28;21026;-58
2024/01/03 00:16:39;;;;;;;26.03;15.13;;;5.50;99.90;;;5.41;72.07;94649.22;5006635;28;20480;-58
2024/01/03 00:19:08;;;;;;;28.17;15.13;;;5.60;99.90;;;5.42;71.56;94647.44;5009504;28;20951;-58
2024/01/03 00:21:35;;;;;;;23.33;14.60;;;5.60;99.90;;;5.41;72.09;94646.63;5009193;28;20990;-58
2024/01/03 00:24:07;;;;;;;26.83;14.93;;;5.60;99.90;;;5.42;71.83;94652.66;5009502;28;20454;-58
2024/01/03 00:26:35;;;;;;;26.80;14.77;;;5.60;99.90;;;5.42;72.06;94644.84;5008965;28;20612;-58
2024/01/03 00:29:03;;;;;;;25.50;14.40;;;5.60;99.90;;;5.44;71.67;94649.00;5009246;28;20846;-57
2024/01/03 00:31:37;;;;;;;26.50;15.33;;;5.60;99.90;;;5.47;72.28;94645.31;5009082;28;20506;-57
2024/01/03 00:34:05;;;;;;;22.07;15.87;;;5.60;99.90;;;5.48;72.15;94646.97;5008944;28;20446;-57
2024/01/03 00:36:33;;;;;;;21.90;14.67;;;5.60;99.90;;;5.48;72.12;94633.94;5009385;28;20489;-57
2024/01/03 00:39:00;;;;;;;25.87;14.60;;;5.60;99.90;;;5.47;71.77;94640.09;5009031;28;20449;-58
2024/01/03 00:41:29;;;;;;;24.33;14.10;;;5.60;99.90;;;5.49;72.30;94643.44;5008594;28;21008;-57
2024/01/03 00:43:56;;;;;;;28.40;13.87;;;5.70;99.90;;;5.51;72.50;94639.75;5008832;28;20450;-58
2024/01/03 00:46:24;;;;;;;21.83;14.00;;;5.70;99.90;;;5.53;72.45;94648.31;5009015;28;20474;-58
2024/01/03 00:48:51;;;;;;;29.10;16.10;;;5.70;99.90;;;5.54;72.28;94641.31;5008979;28;21017;-56
2024/01/03 00:51:18;;;;;;;22.93;14.07;;;5.70;99.90;;;5.56;72.35;94634.19;5008794;28;21002;-59
2024/01/03 00:53:45;;;;;;;20.90;14.00;;;5.70;99.90;;;5.55;72.20;94649.03;5008887;28;20992;-59
2024/01/03 00:56:13;;;;;;;25.53;14.73;;;5.70;99.90;;;5.56;72.46;94657.66;5008187;28;20469;-57
2024/01/03 00:58:42;;;;;;;20.93;14.03;;;5.70;99.90;;;5.56;72.73;94648.09;5008818;28;20508;-57
2024/01/03 01:01:09;;;;;;;21.00;13.70;;;5.70;99.90;;;5.56;72.61;94644.63;5007532;28;20473;-58
2024/01/03 01:03:36;;;;;;;24.40;13.10;;;5.70;99.90;;;5.60;72.04;94651.28;5008352;28;20978;-59
2024/01/03 01:06:05;;;;;;;32.93;18.33;;;5.70;99.90;;;5.62;72.44;94661.59;5008420;28;20920;-57
2024/01/03 01:08:32;;;;;;;26.17;15.00;;;5.80;99.90;;;5.63;72.15;94645.00;5009033;28;20559;-59
2024/01/03 01:10:59;;;;;;;34.70;17.27;;;5.80;99.90;;;5.65;72.54;94643.94;5008543;28;20470;-58
2024/01/03 01:13:26;;;;;;;21.37;13.30;;;5.80;99.90;;;5.69;72.21;94645.38;5007148;28;20454;-59
2024/01/03 01:15:55;;;;;;;19.40;12.73;;;5.80;99.90;;;5.70;72.41;94636.59;5003236;28;20527;-58
2024/01/03 01:18:22;;;;;;;19.07;11.77;;;5.90;99.90;;;5.74;72.65;94638.03;5009170;28;20495;-57
2024/01/03 01:20:50;;;;;;;20.23;12.90;;;5.90;99.90;;;5.76;72.70;94630.06;5008518;28;20527;-56
2024/01/03 01:23:17;;;;;;;18.63;12.80;;;5.90;99.90;;;5.78;72.47;94632.56;5009278;28;20531;-57
2024/01/03 01:25:44;;;;;;;19.00;13.30;;;5.90;99.90;;;5.80;72.55;94631.53;5008487;28;20481;-57
2024/01/03 01:28:12;;;;;;;20.90;13.30;;;5.90;99.90;;;5.83;72.41;94627.84;5009349;28;20500;-57
2024/01/03 01:30:39;;;;;;;22.57;13.60;;;6.00;99.90;;;5.85;72.34;94625.94;5009020;28;20531;-59
2024/01/03 01:33:08;;;;;;;16.87;12.40;;;6.00;99.90;;;5.88;72.64;94623.91;5009173;28;20469;-59
2024/01/03 01:35:35;;;;;;;15.83;10.97;;;6.00;99.90;;;5.88;72.39;94610.88;5007458;28;20462;-57
2024/01/03 01:38:06;;;;;;;16.57;10.83;;;6.00;99.90;;;5.89;72.50;94609.13;5008962;28;20446;-59
2024/01/03 01:40:33;;;;;;;16.40;12.30;;;6.00;99.90;;;5.91;72.51;94612.44;5008640;28;20454;-57
2024/01/03 01:43:00;;;;;;;18.83;11.30;;;6.10;99.90;;;5.93;72.58;94610.53;5011237;28;20450;-59
2024/01/03 01:45:28;;;;;;;16.17;10.30;;;6.10;99.90;;;5.93;72.52;94615.75;5012157;28;20473;-58
2024/01/03 01:47:55;;;;;;;17.57;11.27;;;6.10;99.90;;;5.94;72.81;94617.41;5012242;28;20547;-58
2024/01/03 01:50:23;;;;;;;16.70;10.13;;;6.10;99.90;;;5.96;72.27;94619.91;5011915;28;20564;-58
2024/01/03 01:52:52;;;;;;;15.30;11.90;;;6.10;99.90;;;5.97;72.89;94616.38;5012109;28;20453;-59
2024/01/03 01:55:20;;;;;;;21.80;11.30;;;6.10;99.90;;;5.99;72.41;94609.25;5012727;28;20509;-59
2024/01/03 01:57:47;;;;;;;24.37;11.50;;;6.10;99.90;;;6.00;72.70;94606.53;5010608;28;20959;-58
2024/01/03 02:00:15;;;;;;;16.40;11.33;;;6.10;99.90;;;5.99;72.58;94599.63;5012280;28;20477;-58
2024/01/03 02:02:43;;;;;;;14.27;10.47;;;6.10;99.90;;;6.03;72.76;94610.69;5012282;28;20839;-59
2024/01/03 02:05:10;;;;;;;16.60;11.10;;;6.20;99.90;;;6.03;72.76;94608.91;5012252;28;20465;-59
2024/01/03 02:07:38;;;;;;;17.00;10.40;;;6.20;99.90;;;6.04;72.22;94621.03;5012336;28;20454;-58
2024/01/03 02:10:08;;;;;;;14.97;10.30;;;6.20;99.90;;;6.05;72.18;94627.06;5011030;28;20504;-58
2024/01/03 02:12:37;;;;;;;12.80;10.90;;;6.20;99.90;;;6.03;72.73;94629.78;5011502;28;20454;-58
2024/01/03 02:15:06;;;;;;;14.67;10.20;;;6.20;99.90;;;6.01;72.18;94629.09;5012239;28;20479;-57
2024/01/03 02:17:34;;;;;;;18.37;11.73;;;6.20;99.90;;;6.01;72.96;94628.22;5011955;28;20560;-59
2024/01/03 02:20:01;;;;;;;19.07;12.20;;;6.20;99.90;;;6.00;72.39;94621.38;5011007;28;20461;-57
2024/01/03 02:22:30;;;;;;;23.07;10.60;;;6.10;99.90;;;5.97;71.67;94609.38;5012135;28;20481;-57
2024/01/03 02:24:59;;;;;;;16.70;10.30;;;6.10;99.90;;;5.93;71.93;94620.97;5010935;28;20572;-58
2024/01/03 02:27:27;;;;;;;17.10;11.07;;;6.10;99.90;;;5.91;71.85;94604.59;5011573;28;20460;-59
2024/01/03 02:29:54;;;;;;;15.57;10.07;;;6.10;99.90;;;5.90;71.84;94600.31;5011366;28;20505;-57
2024/01/03 02:32:21;;;;;;;17.37;11.30;;;6.00;99.90;;;5.86;72.57;94598.91;5011865;28;20449;-60
2024/01/03 02:34:48;;;;;;;16.63;10.57;;;6.00;99.90;;;5.84;72.15;94590.34;5011539;28;20994;-57
2024/01/03 02:37:18;;;;;;;14.40;10.97;;;6.00;99.90;;;5.84;72.49;94585.13;5011804;28;20988;-59
2024/01/03 02:39:46;;;;;;;15.10;10.10;;;6.00;99.90;;;5.84;72.73;94585.13;5011129;28;20828;-58
2024/01/03 02:42:14;;;;;;;12.13;8.70;;;6.00;99.90;;;5.85;72.66;94592.84;5011097;28;20465;-57
2024/01/03 02:44:41;;;;;;;10.70;8.37;;;6.00;99.90;;;5.87;73.22;94577.06;5011748;28;20575;-57
2024/01/03 02:47:08;;;;;;;14.60;9.70;;;6.00;99.90;;;5.90;72.67;94582.03;5010827;28;20449;-57
2024/01/03 02:49:36;;;;;;;12.27;8.77;;;6.00;99.90;;;5.93;72.96;94580.03;5010879;28;20489;-57
2024/01/03 02:52:03;;;;;;;15.70;9.43;;;6.00;99.90;;;5.97;73.71;94580.66;5010935;28;20449;-58
2024/01/03 02:54:30;;;;;;;11.77;8.33;;;6.10;99.90;;;6.00;72.77;94579.59;5010789;28;20957;-58
2024/01/03 02:56:59;;;;;;;14.97;10.50;;;6.10;99.90;;;6.00;72.75;94574.38;5011623;28;20481;-57
2024/01/03 02:59:26;;;;;;;25.10;10.17;;;6.10;99.90;;;6.02;72.54;94575.91;5012055;28;20446;-57
2024/01/03 03:01:54;;;;;;;13.47;10.37;;;6.20;99.90;;;6.05;73.39;94582.69;5010838;28;20450;-57
2024/01/03 03:04:21;;;;;;;16.90;10.67;;;6.20;99.90;;;6.07;72.42;94580.75;5010793;28;20975;-57
2024/01/03 03:06:48;;;;;;;21.93;12.67;;;6.20;99.90;;;6.05;72.61;94588.72;5010473;28;20457;-58
2024/01/03 03:09:15;;;;;;;14.77;10.80;;;6.20;99.90;;;6.02;72.54;94588.97;5010466;28;20477;-57
2024/01/03 03:11:43;;;;;;;14.70;11.17;;;6.20;99.90;;;6.02;72.77;94588.97;5010801;28;20485;-59
2024/01/03 03:14:11;;;;;;;20.87;12.40;;;6.20;99.90;;;6.02;72.56;94581.13;5011252;28;20555;-58
2024/01/03 03:16:39;;;;;;;14.00;9.90;;;6.20;99.90;;;6.03;72.33;94579.38;5010599;28;20532;-59
2024/01/03 03:19:06;;;;;;;11.73;9.27;;;6.20;99.90;;;6.06;72.61;94577.34;5009801;28;20453;-59
2024/01/03 03:21:33;;;;;;;17.67;11.60;;;6.20;99.90;;;6.09;72.34;94563.22;5007387;28;20533;-57
2024/01/03 03:24:01;;;;;;;15.27;11.20;;;6.20;99.90;;;6.10;72.79;94567.47;5010696;28;20458;-58
2024/01/03 03:26:28;;;;;;;18.47;11.10;;;6.20;99.90;;;6.13;72.60;94553.34;5008078;28;20998;-56
2024/01/03 03:28:56;;;;;;;14.07;10.20;;;6.30;99.90;;;6.12;71.93;94544.72;5009776;28;20532;-59
2024/01/03 03:31:24;;;;;;;19.13;10.27;;;6.30;99.90;;;6.13;72.82;94542.91;5010153;28;20476;-58
2024/01/03 03:33:52;;;;;;;18.40;10.27;;;6.30;99.90;;;6.15;72.43;94551.44;5009914;28;20458;-58
2024/01/03 03:36:20;;;;;;;15.50;10.73;;;6.30;99.90;;;6.16;72.94;94532.22;5010542;28;20458;-57
2024/01/03 03:38:47;;;;;;;15.60;10.80;;;6.30;99.90;;;6.16;72.71;94538.28;5010186;28;20996;-58
2024/01/03 03:41:14;;;;;;;19.57;12.47;;;6.30;99.90;;;6.15;72.26;94536.63;5009649;28;20462;-58
2024/01/03 03:43:42;;;;;;;15.60;11.50;;;6.30;99.90;;;6.14;72.07;94528.91;5010694;28;20460;-58
2024/01/03 03:46:10;;;;;;;15.50;10.70;;;6.30;99.90;;;6.10;72.13;94539.59;5009321;28;20915;-58
2024/01/03 03:48:39;;;;;;;14.47;10.60;;;6.20;99.90;;;6.05;72.82;94533.91;5011739;28;20572;-59
2024/01/03 03:51:06;;;;;;;14.53;10.37;;;6.20;99.90;;;6.04;72.51;94532.25;5009525;28;20488;-58
2024/01/03 03:53:33;;;;;;;16.20;10.67;;;6.20;99.90;;;6.02;72.49;94526.31;5010080;28;20503;-59
2024/01/03 03:56:00;;;;;;;13.87;9.83;;;6.20;99.90;;;6.00;72.41;94533.44;5009812;28;20478;-57
2024/01/03 03:58:28;;;;;;;16.20;10.47;;;6.10;99.90;;;5.97;72.95;94528.44;5010162;28;20519;-59
2024/01/03 04:00:55;;;;;;;16.20;10.37;;;6.10;99.90;;;5.96;72.54;94550.25;5009598;28;20470;-58
2024/01/03 04:03:22;;;;;;;14.57;11.03;;;6.10;99.90;;;5.94;72.08;94549.53;5010206;28;20453;-58
2024/01/03 04:05:51;;;;;;;17.43;11.87;;;6.10;99.90;;;5.92;72.30;94551.47;5009348;28;20560;-59
2024/01/03 04:08:18;;;;;;;19.70;12.07;;;6.10;99.90;;;5.93;72.28;94553.09;5010152;28;20460;-58
2024/01/03 04:10:45;;;;;;;17.70;11.33;;;6.10;99.90;;;5.95;73.36;94552.97;5010569;28;20497;-58
2024/01/03 04:13:13;;;;;;;14.60;10.43;;;6.10;99.90;;;5.99;73.33;94557.88;5007767;28;20453;-58
2024/01/03 04:15:40;;;;;;;16.30;11.70;;;6.10;99.90;;;6.02;73.38;94555.03;5010084;28;20529;-58
2024/01/03 04:18:07;;;;;;;17.23;12.70;;;6.20;99.90;;;6.06;73.15;94548.63;5008843;28;20457;-57
2024/01/03 04:20:35;;;;;;;16.43;10.63;;;6.20;99.90;;;6.08;72.44;94551.94;5009271;28;20469;-59
2024/01/03 04:23:04;;;;;;;18.57;12.00;;;6.20;99.90;;;6.11;72.77;94556.09;5009758;28;20481;-57
2024/01/03 04:25:32;;;;;;;19.30;11.80;;;6.20;99.90;;;6.12;73.17;94547.31;5005474;28;21018;-58
2024/01/03 04:27:59;;;;;;;21.27;12.57;;;6.20;99.90;;;6.16;73.44;94559.16;5009563;28;20486;-57
2024/01/03 04:30:26;;;;;;;18.50;13.40;;;6.30;99.90;;;6.18;72.67;94553.81;5009265;28;20571;-59
2024/01/03 04:32:54;;;;;;;18.77;11.87;;;6.30;99.90;;;6.19;72.33;94560.72;5009325;28;20509;-57
2024/01/03 04:35:21;;;;;;;20.03;12.83;;;6.30;99.90;;;6.19;73.31;94553.69;5009087;28;20530;-58
2024/01/03 04:37:48;;;;;;;17.20;13.37;;;6.30;99.90;;;6.21;72.91;94553.56;5008974;28;20446;-59
2024/01/03 04:40:18;;;;;;;19.20;13.93;;;6.40;99.90;;;6.21;72.84;94551.81;5009501;28;20493;-59
2024/01/03 04:42:45;;;;;;;20.30;13.90;;;6.40;99.90;;;6.21;72.63;94558.78;5009371;28;20962;-60
2024/01/03 04:45:12;;;;;;;20.53;13.53;;;6.30;99.90;;;6.19;72.79;94553.69;5008641;28;20535;-59
2024/01/03 04:47:40;;;;;;;19.90;13.43;;;6.30;99.90;;;6.18;72.01;94546.84;5009358;28;20470;-59
2024/01/03 04:50:08;;;;;;;20.23;12.30;;;6.30;99.90;;;6.17;72.46;94550.38;5008592;28;20493;-58
2024/01/03 04:52:36;;;;;;;24.90;13.97;;;6.30;99.90;;;6.13;71.84;94548.13;5009307;28;20520;-59
2024/01/03 04:55:03;;;;;;;16.83;12.00;;;6.30;99.90;;;6.10;72.55;94547.44;5008940;28;21030;-59
2024/01/03 04:57:34;;;;;;;26.87;10.60;;;6.20;99.90;;;6.08;72.67;94551.09;5008846;28;20481;-59
2024/01/03 05:00:01;;;;;;;13.13;10.20;;;6.20;99.90;;;6.07;72.21;94545.06;5009104;28;20844;-59
2024/01/03 05:02:28;;;;;;;14.00;9.10;;;6.20;99.90;;;6.10;73.01;94543.97;5008048;28;20536;-58
2024/01/03 05:04:55;;;;;;;14.60;10.23;;;6.20;99.90;;;6.15;72.78;94546.22;5007773;28;20524;-60
2024/01/03 05:07:23;;;;;;;21.00;13.90;;;6.30;99.90;;;6.21;73.53;94550.97;5009308;28;20565;-59
2024/01/03 05:09:50;;;;;;;57.87;29.50;;;6.30;99.90;;;6.21;72.09;94553.56;5009674;28;20500;-58
2024/01/03 05:12:18;;;;;;;57.83;33.57;;;6.40;99.90;;;6.13;72.01;94554.19;5008794;28;20935;-60
2024/01/03 05:14:46;;;;;;;53.20;32.60;;;6.30;99.90;;;6.07;71.85;94554.66;5008467;28;20531;-59
2024/01/03 05:17:13;;;;;;;53.33;30.43;;;6.20;99.90;;;5.99;71.08;94555.25;5009470;28;20454;-59
2024/01/03 05:19:43;;;;;;;50.93;29.17;;;6.20;99.90;;;5.90;71.13;94561.16;5008016;28;20847;-58
2024/01/03 05:22:10;;;;;;;48.30;28.67;;;6.10;99.90;;;5.84;71.20;94569.47;5009163;28;20457;-60
2024/01/03 05:24:37;;;;;;;41.70;25.27;;;6.00;99.90;;;5.80;71.79;94568.06;5005921;28;20831;-59
2024/01/03 05:27:05;;;;;;;44.33;25.40;;;6.00;99.90;;;5.77;71.35;94565.69;5009289;28;20454;-60
2024/01/03 05:29:32;;;;;;;47.70;23.57;;;5.90;99.90;;;5.72;71.10;94560.81;5007491;28;20494;-59
2024/01/03 05:32:01;;;;;;;37.30;23.20;;;5.90;99.90;;;5.69;71.75;94561.88;5008028;28;20870;-59
2024/01/03 05:34:29;;;;;;;45.67;23.73;;;5.90;99.90;;;5.68;71.24;94568.03;5009430;28;20445;-60
2024/01/03 05:37:14;;;;;;;36.80;22.20;;;5.80;99.90;;;5.66;71.54;94566.50;5009057;28;20464;-58
2024/01/03 05:39:41;;;;;;;44.57;23.43;;;5.80;99.90;;;5.66;71.64;94576.94;5004970;28;20964;-59
2024/01/03 05:42:08;;;;;;;35.63;20.60;;;5.80;99.90;;;5.66;71.59;94569.94;5007702;28;20503;-59
2024/01/03 05:44:36;;;;;;;41.27;22.40;;;5.80;99.90;;;5.67;71.87;94573.38;5008826;28;20458;-59
2024/01/03 05:47:05;;;;;;;42.80;22.40;;;5.80;99.90;;;5.66;71.56;94564.72;5008779;28;20790;-59
2024/01/03 05:49:33;;;;;;;39.03;20.73;;;5.80;99.90;;;5.62;70.88;94559.84;5007420;28;20481;-59
2024/01/03 05:52:01;;;;;;;38.90;20.70;;;5.80;99.90;;;5.56;70.95;94551.56;5009418;28;20855;-59
2024/01/03 05:54:29;;;;;;;36.50;20.20;;;5.80;99.90;;;5.52;70.77;94557.94;5006978;28;20561;-57
2024/01/03 05:56:56;;;;;;;35.60;20.13;;;5.70;99.90;;;5.47;70.79;94560.09;5007090;28;20480;-58
2024/01/03 05:59:23;;;;;;;39.23;20.20;;;5.70;99.90;;;5.38;70.97;94564.22;5002767;28;20450;-59
2024/01/03 06:01:51;;;;;;;36.57;20.70;;;5.60;99.90;;;5.34;70.41;94551.53;5007190;28;20878;-59
2024/01/03 06:04:19;;;;;;;40.23;22.00;;;5.60;99.90;;;5.28;70.72;94546.75;5006364;28;20449;-60
2024/01/03 06:06:47;;;;;;;43.07;21.10;;;5.50;99.90;;;5.22;70.60;94548.09;5004202;28;20445;-57
2024/01/03 06:09:14;;;;;;;35.10;20.60;;;5.40;99.90;;;5.15;71.19;94552.91;5007858;28;20496;-57
2024/01/03 06:11:41;;;;;;;33.63;19.67;;;5.40;99.90;;;5.12;71.00;94547.09;5008914;28;20470;-58
2024/01/03 06:14:09;;;;;;;36.90;21.10;;;5.30;99.90;;;5.09;71.34;94555.97;5008323;28;20446;-59
2024/01/03 06:16:36;;;;;;;32.07;18.17;;;5.30;99.90;;;5.07;71.41;94544.84;5008958;28;20486;-58
2024/01/03 06:19:04;;;;;;;40.43;20.33;;;5.30;99.90;;;5.06;71.18;94547.56;5008351;28;21176;-59
2024/01/03 06:21:33;;;;;;;30.93;20.50;;;5.30;99.90;;;5.05;71.57;94556.31;5009094;28;20480;-59
2024/01/03 06:24:01;;;;;;;31.60;20.40;;;5.20;99.90;;;5.05;72.04;94558.91;5005888;28;20493;-59
2024/01/03 06:26:30;;;;;;;33.93;22.60;;;5.20;99.90;;;5.06;71.70;94566.63;5009122;28;20469;-58
2024/01/03 06:28:57;;;;;;;31.73;21.27;;;5.30;99.90;;;5.04;72.00;94565.91;5010927;28;20906;-57
2024/01/03 06:31:25;;;;;;;33.63;20.83;;;5.20;99.90;;;5.06;71.88;94557.97;5012093;28;20480;-58
2024/01/03 06:33:52;;;;;;;31.93;20.07;;;5.20;99.90;;;5.06;71.98;94553.59;5011469;28;20839;-59
2024/01/03 06:36:21;;;;;;;33.10;19.20;;;5.20;99.90;;;5.08;72.35;94541.28;5012593;28;20917;-58
2024/01/03 06:38:50;;;;;;;30.93;17.87;;;5.30;99.90;;;5.09;72.27;94531.69;5012098;28;20449;-58
2024/01/03 06:41:17;;;;;;;28.90;17.60;;;5.20;99.90;;;5.07;72.64;94538.81;5011792;28;20481;-59
2024/01/03 06:43:45;;;;;;;29.20;15.83;;;5.30;99.90;;;5.07;72.64;94537.00;5012098;28;20458;-58
2024/01/03 06:46:12;;;;;;;29.30;16.60;;;5.20;99.90;;;5.10;72.57;94535.97;5011830;28;20474;-62
2024/01/03 06:48:40;;;;;;;23.23;15.67;;;5.30;99.90;;;5.15;72.52;94539.03;5010912;28;20461;-58
2024/01/03 06:51:07;;;;;;;28.90;17.33;;;5.30;99.90;;;5.22;73.00;94537.66;5011701;28;20497;-59
2024/01/03 06:53:35;;;;;;;28.60;15.13;;;5.30;99.90;;;5.27;73.05;94550.34;5012096;28;20994;-59
2024/01/03 06:56:04;;;;;;;26.27;15.70;;;5.40;99.90;;;5.34;72.95;94565.38;5008575;28;20478;-59
2024/01/03 06:58:32;;;;;;;29.37;17.90;;;5.50;99.90;;;5.43;73.36;94560.44;5012746;28;20508;-58
2024/01/03 07:01:00;;;;;;;28.80;16.17;;;5.60;99.90;;;5.50;73.08;94564.22;5012090;28;20469;-59
2024/01/03 07:03:27;;;;;;;33.07;17.57;;;5.60;99.90;;;5.54;73.07;94547.41;5010332;28;20458;-58
2024/01/03 07:05:54;;;;;;;33.60;17.93;;;5.70;99.90;;;5.58;72.92;94551.44;5011582;28;20481;-58
2024/01/03 07:08:21;;;;;;;32.90;19.93;;;5.70;99.90;;;5.60;72.24;94546.94;5012494;28;20449;-59
2024/01/03 07:10:49;;;;;;;34.57;19.97;;;5.70;99.90;;;5.62;72.07;94542.41;5012056;28;20499;-59
2024/01/03 07:13:18;;;;;;;36.77;20.80;;;5.80;99.90;;;5.65;72.53;94555.22;5012116;28;20457;-58
2024/01/03 07:15:45;;;;;;;38.77;21.30;;;5.80;99.90;;;5.71;72.29;94549.53;5012053;28;20466;-57
2024/01/03 07:18:12;;;;;;;34.67;20.80;;;5.80;99.90;;;5.74;73.07;94554.53;5011387;28;20492;-59
2024/01/03 07:20:40;;;;;;;32.60;19.33;;;5.90;99.90;;;5.81;72.52;94556.66;5011231;28;20552;-59
2024/01/03 07:23:07;;;;;;;28.27;18.13;;;5.90;99.90;;;5.86;72.54;94557.16;5011266;28;20933;-58
2024/01/03 07:25:35;;;;;;;25.50;16.93;;;6.00;99.90;;;5.92;73.25;94552.28;5011499;28;20477;-58
2024/01/03 07:28:02;;;;;;;30.03;17.83;;;6.00;99.90;;;5.99;72.95;94560.47;5011236;28;20508;-58
2024/01/03 07:30:31;;;;;;;28.47;17.67;;;6.10;99.90;;;6.05;72.82;94562.63;5011408;28;20497;-58
2024/01/03 07:32:59;;;;;;;31.50;19.60;;;6.20;99.90;;;6.09;72.95;94556.22;5006389;28;20957;-58
2024/01/03 07:35:26;;;;;;;32.43;19.47;;;6.20;99.90;;;6.17;72.90;94541.72;5011139;28;20477;-58
2024/01/03 07:37:53;;;;;;;29.60;18.80;;;6.30;99.90;;;6.21;72.76;94553.56;5010852;28;20446;-58
2024/01/03 07:40:21;;;;;;;25.77;16.67;;;6.30;99.90;;;6.23;72.52;94551.69;5009773;28;20488;-58
2024/01/03 07:42:48;;;;;;;29.93;17.70;;;6.30;99.90;;;6.27;72.67;94550.47;5010886;28;20977;-58
2024/01/03 07:45:16;;;;;;;23.20;15.33;;;6.40;99.90;;;6.27;72.43;94551.34;5007096;28;20473;-59
2024/01/03 07:47:44;;;;;;;29.90;16.60;;;6.40;99.90;;;6.30;71.75;94544.19;5009441;28;20465;-58
2024/01/03 07:50:12;;;;;;;29.83;16.97;;;6.40;99.90;;;6.32;71.57;94547.50;5007447;28;20489;-61
2024/01/03 07:52:40;;;;;;;28.90;16.90;;;6.40;99.90;;;6.37;72.77;94548.00;5007162;28;20496;-60
2024/01/03 07:55:08;;;;;;;25.90;16.70;;;6.50;99.90;;;6.42;73.15;94546.66;5010862;28;20481;-60
2024/01/03 07:57:35;;;;;;;27.67;15.93;;;6.50;99.90;;;6.50;72.24;94545.22;5007544;28;20481;-60
2024/01/03 08:00:03;;;;;;;24.20;16.47;;;6.60;99.90;;;6.56;72.33;94556.00;5006782;28;20482;-61
2024/01/03 08:02:30;;;;;;;25.23;16.97;;;6.60;99.90;;;6.60;71.94;94553.97;5009260;28;20461;-60
2024/01/03 08:04:59;;;;;;;30.20;17.30;;;6.70;99.90;;;6.62;71.88;94546.84;5006693;28;20480;-59
2024/01/03 08:07:26;;;;;;;33.37;18.67;;;6.70;99.90;;;6.68;72.02;94542.88;5010559;28;20453;-57
2024/01/03 08:09:54;;;;;;;27.93;16.73;;;6.80;99.90;;;6.74;71.85;94529.31;5010514;28;20481;-59
2024/01/03 08:12:21;;;;;;;25.93;16.30;;;6.80;99.90;;;6.79;72.31;94540.25;5003286;28;20455;-60
2024/01/03 08:14:48;;;;;;;27.53;17.53;;;6.90;99.90;;;6.87;72.39;94534.41;5009983;28;20873;-60
2024/01/03 08:17:16;;;;;;;23.30;14.70;;;7.00;99.90;;;6.94;72.11;94532.91;5010586;28;20449;-58
2024/01/03 08:19:43;;;;;;;22.57;14.93;;;7.00;99.90;;;6.98;71.66;94526.50;5009920;28;20466;-57
2024/01/03 08:22:11;;;;;;;25.30;15.60;;;7.10;99.90;;;7.02;72.07;94529.69;5010328;28;20465;-60
2024/01/03 08:24:39;;;;;;;35.10;17.13;;;7.10;99.90;;;7.07;72.14;94528.34;5009477;28;20461;-59
2024/01/03 08:27:06;;;;;;;30.57;17.23;;;7.20;99.90;;;7.12;71.48;94525.34;5006181;28;20455;-57
2024/01/03 08:29:36;;;;;;;30.17;16.67;;;7.20;99.90;;;7.16;72.21;94532.81;5009853;28;20518;-57
2024/01/03 08:32:04;;;;;;;25.60;17.30;;;7.20;99.90;;;7.21;71.56;94526.38;5004999;28;20453;-58
2024/01/03 08:34:31;;;;;;;21.10;14.83;;;7.30;99.90;;;7.25;71.64;94514.69;5005954;28;20458;-60
2024/01/03 08:36:58;;;;;;;28.10;15.30;;;7.30;99.90;;;7.29;71.53;94522.16;5006452;28;20465;-57
2024/01/03 08:39:27;;;;;;;25.40;15.70;;;7.40;99.90;;;7.32;71.28;94515.84;5009963;28;20532;-56
2024/01/03 08:41:54;;;;;;;28.60;15.90;;;7.40;99.90;;;7.37;71.70;94526.75;5005723;28;20507;-61
2024/01/03 08:44:22;;;;;;;26.07;16.77;;;7.50;99.90;;;7.42;71.53;94526.34;5006011;28;20458;-61
2024/01/03 08:46:49;;;;;;;22.77;16.87;;;7.50;99.90;;;7.44;71.32;94514.81;5000422;28;20449;-58
2024/01/03 08:49:16;;;;;;;40.60;21.57;;;7.50;99.90;;;7.47;70.41;94519.78;5009626;28;20937;-60
2024/01/03 08:51:46;;;;;;;50.77;30.40;;;7.50;99.90;;;7.44;69.93;94514.00;5005939;28;20880;-59
2024/01/03 08:54:14;;;;;;;49.23;28.60;;;7.50;99.90;;;7.38;69.14;94517.13;5005875;28;20944;-57
2024/01/03 08:56:43;;;;;;;48.60;28.63;;;7.50;99.90;;;7.25;69.19;94504.22;5005679;28;20469;-60
2024/01/03 08:59:10;;;;;;;60.27;29.83;;;7.40;99.90;;;7.18;69.98;94496.06;5006189;28;20533;-60
2024/01/03 09:01:37;;;;;;;44.67;27.47;;;7.30;99.90;;;7.13;69.13;94506.91;5009328;28;21032;-60
2024/01/03 09:04:05;;;;;;;53.30;26.80;;;7.30;99.90;;;7.05;69.71;94498.03;5004420;28;20504;-62
2024/01/03 09:06:35;;;;;;;41.80;27.10;;;7.20;99.90;;;6.96;68.95;94499.66;5005649;28;20539;-58
2024/01/03 09:09:02;;;;;;;37.40;23.77;;;7.10;99.90;;;6.90;68.90;94505.38;5008282;28;20445;-57
2024/01/03 09:11:30;;;;;;;38.47;23.37;;;7.00;99.90;;;6.82;68.51;94495.56;5006964;28;20497;-60
2024/01/03 09:13:58;;;;;;;43.23;24.80;;;7.00;99.90;;;6.74;68.27;94498.81;5006688;28;20454;-60
2024/01/03 09:16:27;;;;;;;41.93;22.67;;;6.90;99.90;;;6.66;68.37;94495.16;5009257;28;20466;-58
2024/01/03 09:18:54;;;;;;;48.50;24.23;;;6.80;99.90;;;6.58;69.52;94499.25;5009261;28;20515;-59
2024/01/03 09:21:22;;;;;;;45.70;26.47;;;6.80;99.90;;;6.58;68.99;94485.31;5009142;28;20553;-58
2024/01/03 09:23:50;;;;;;;36.37;23.30;;;6.70;99.90;;;6.54;69.26;94494.38;5009094;28;20454;-57
2024/01/03 09:26:20;;;;;;;37.50;22.80;;;6.70;99.90;;;6.45;69.22;94485.50;5009219;28;20470;-57
2024/01/03 09:28:47;;;;;;;39.00;22.43;;;6.60;99.90;;;6.41;69.51;94492.75;5009129;28;20445;-57
2024/01/03 09:31:16;;;;;;;44.37;23.90;;;6.50;99.90;;;6.39;69.36;94492.03;5006133;28;20493;-57
2024/01/03 09:33:42;;;;;;;46.80;24.07;;;6.50;99.90;;;6.39;69.37;94481.59;5006044;28;20544;-61
2024/01/03 09:36:18;;;;;;;43.97;24.37;;;6.50;99.90;;;6.41;69.88;94482.31;5008840;28;20466;-60
2024/01/03 09:38:46;;;;;;;37.10;22.90;;;6.60;99.90;;;6.44;69.31;94482.06;5009453;28;20779;-60
2024/01/03 09:41:15;;;;;;;53.40;26.23;;;6.60;99.90;;;6.49;69.49;94475.63;5004761;28;20466;-61
2024/01/03 09:43:43;;;;;;;50.27;28.97;;;6.60;99.90;;;6.55;69.93;94475.13;5004997;28;20864;-62
2024/01/03 09:46:11;;;;;;;50.53;27.40;;;6.60;99.90;;;6.59;69.52;94476.53;5007567;28;20564;-58
2024/01/03 09:48:42;;;;;;;40.07;24.43;;;6.70;99.90;;;6.62;69.35;94476.28;5006638;28;20450;-62
2024/01/03 09:51:09;;;;;;;39.80;23.33;;;6.70;99.90;;;6.66;69.99;94476.84;5008975;28;21001;-61
2024/01/03 09:53:36;;;;;;;44.63;24.03;;;6.80;99.90;;;6.71;69.55;94480.75;5008483;28;20454;-61
2024/01/03 09:56:04;;;;;;;40.27;23.13;;;6.80;99.90;;;6.73;70.09;94468.38;5004298;28;20493;-58
2024/01/03 09:58:31;;;;;;;37.43;22.27;;;6.80;99.90;;;6.76;70.23;94468.13;5005016;28;20449;-57
2024/01/03 10:00:59;;;;;;;33.33;19.40;;;6.90;99.90;;;6.77;70.25;94468.94;5008868;28;20478;-58
2024/01/03 10:03:26;;;;;;;42.63;19.70;;;6.90;99.90;;;6.80;69.71;94453.88;5009713;28;21008;-58
2024/01/03 10:06:10;;;;;;;41.13;18.97;;;6.90;99.90;;;6.84;70.45;94453.63;5012820;28;20473;-58
2024/01/03 10:08:38;;;;;;;12.50;7.80;;;6.90;99.90;;;6.90;70.33;94447.88;5009403;28;20453;-62
2024/01/03 10:11:20;;;;;;;20.70;11.70;;;7.00;99.90;;;7.05;70.11;94453.59;5011550;28;20493;-61
2024/01/03 10:13:49;;;;;;;5.67;4.27;;;7.10;99.90;;;7.17;69.68;94437.72;5012122;28;20906;-61
2024/01/03 10:16:24;;;;;;;4.00;3.10;;;7.30;99.90;;;7.38;69.22;94442.06;5012473;28;20805;-58
2024/01/03 10:19:09;;;;;;;13.33;7.90;;;7.40;99.90;;;7.58;69.32;94444.78;5012002;28;21001;-58
2024/01/03 10:21:40;;;;;;;16.27;9.00;;;7.60;99.90;;;7.74;69.74;94437.25;5008889;28;20512;-59
2024/01/03 10:24:10;;;;;;;4.27;3.87;;;7.80;99.90;;;7.88;69.02;94430.81;5012687;28;20548;-59